createdAt,value
2023-04-18T00:02:41.653Z,10.93
2023-04-18T00:06:45.276Z,13.25
2023-04-18T00:10:48.372Z,13.20
2023-04-18T00:18:57.517Z,12.38
2023-04-18T00:23:04.081Z,13.00
2023-04-18T00:27:07.278Z,12.20
2023-04-18T00:31:10.397Z,12.63
2023-04-18T00:39:23.714Z,13.00
2023-04-18T00:43:28.393Z,13.07
2023-04-18T00:47:37.079Z,13.85
2023-04-18T00:51:42.083Z,13.70
2023-04-18T00:55:45.104Z,13.73
2023-04-18T00:59:50.966Z,14.25
2023-04-18T01:03:54.233Z,12.00
2023-04-18T01:08:01.437Z,13.02
2023-04-18T01:12:04.762Z,13.02
2023-04-18T01:16:08.265Z,13.20
2023-04-18T01:20:12.655Z,12.38
2023-04-18T01:24:24.737Z,12.10
2023-04-18T01:28:28.007Z,11.65
2023-04-18T01:32:31.253Z,12.82
2023-04-18T01:36:34.877Z,11.45
2023-04-18T01:40:40.599Z,11.90
2023-04-18T01:44:44.005Z,12.43
2023-04-18T01:48:46.875Z,11.70
2023-04-18T01:52:51.548Z,13.82
2023-04-18T01:56:56.169Z,13.05
2023-04-18T02:00:59.359Z,12.82
2023-04-18T02:05:02.802Z,13.43
2023-04-18T02:09:05.795Z,12.48
2023-04-18T02:13:10.166Z,11.75
2023-04-18T02:17:13.524Z,13.60
2023-04-18T02:21:16.657Z,12.63
2023-04-18T02:29:24.343Z,11.27
2023-04-18T02:33:27.394Z,11.38
2023-04-18T02:37:30.781Z,11.95
2023-04-18T02:41:35.260Z,12.63
2023-04-18T02:45:39.864Z,12.27
2023-04-18T02:49:45.987Z,11.75
2023-04-18T02:53:55.137Z,12.05
2023-04-18T02:57:58.789Z,13.25
2023-04-18T03:02:04.888Z,11.48
2023-04-18T03:06:08.156Z,12.95
2023-04-18T03:10:12.132Z,12.77
2023-04-18T03:14:15.482Z,12.52
2023-04-18T03:18:20.389Z,12.70
2023-04-18T03:22:23.460Z,10.90
2023-04-18T03:26:27.069Z,12.25
2023-04-18T03:30:30.757Z,14.10
2023-04-18T03:34:35.180Z,13.85
2023-04-18T03:38:41.147Z,13.25
2023-04-18T03:42:46.677Z,14.32
2023-04-18T03:46:49.708Z,14.15
2023-04-18T03:50:54.289Z,13.25
2023-04-18T03:54:57.206Z,13.75
2023-04-18T03:59:00.362Z,13.27
2023-04-18T04:07:07.936Z,13.57
2023-04-18T04:11:11.062Z,13.82
2023-04-18T04:15:14.663Z,14.73
2023-04-18T04:23:22.911Z,15.55
2023-04-18T04:27:27.230Z,14.63
2023-04-18T04:31:36.952Z,14.13
2023-04-18T04:35:40.279Z,14.57
2023-04-18T04:39:44.845Z,14.25
2023-04-18T04:43:48.063Z,14.82
2023-04-18T04:47:54.086Z,14.25
2023-04-18T04:51:57.242Z,16.88
2023-04-18T04:56:01.871Z,12.60
2023-04-18T05:00:07.940Z,17.77
2023-04-18T05:04:11.101Z,13.00
2023-04-18T05:08:16.613Z,16.88
2023-04-18T05:12:23.976Z,15.27
2023-04-18T05:16:30.036Z,14.32
2023-04-18T05:20:33.136Z,15.15
2023-04-18T05:28:41.656Z,15.15
2023-04-18T05:32:45.044Z,14.15
2023-04-18T05:36:48.835Z,14.95
2023-04-18T05:40:52.408Z,14.60
2023-04-18T05:44:57.382Z,14.20
2023-04-18T05:49:00.235Z,13.35
2023-04-18T05:53:03.315Z,13.95
2023-04-18T05:57:08.005Z,14.75
2023-04-18T06:01:13.114Z,13.35
2023-04-18T06:05:16.705Z,14.18
2023-04-18T06:09:19.772Z,12.77
2023-04-18T06:13:22.867Z,12.68
2023-04-18T06:17:26.977Z,13.32
2023-04-18T06:21:32.831Z,14.32
2023-04-18T06:25:37.836Z,13.02
2023-04-18T06:29:40.472Z,11.80
2023-04-18T06:33:44.832Z,12.48
2023-04-18T06:37:48.513Z,13.07
2023-04-18T06:41:54.241Z,13.38
2023-04-18T06:45:57.881Z,13.23
2023-04-18T06:50:02.396Z,13.30
2023-04-18T06:54:12.568Z,13.43
2023-04-18T06:58:17.097Z,13.32
2023-04-18T07:02:20.164Z,12.35
2023-04-18T07:06:24.563Z,13.65
2023-04-18T07:10:27.531Z,14.98
2023-04-18T07:14:32.262Z,10.55
2023-04-18T07:18:38.566Z,15.32
2023-04-18T07:22:43.691Z,13.27
2023-04-18T07:26:46.578Z,13.55
2023-04-18T07:30:50.532Z,13.70
2023-04-18T07:34:53.997Z,15.05
2023-04-18T07:38:58.966Z,13.85
2023-04-18T07:43:01.897Z,13.13
2023-04-18T07:47:10.301Z,14.00
2023-04-18T07:51:13.680Z,13.05
2023-04-18T07:55:19.773Z,13.68
2023-04-18T07:59:22.680Z,12.23
2023-04-18T08:07:28.766Z,12.55
2023-04-18T08:11:34.984Z,12.55
2023-04-18T08:15:38.002Z,11.13
2023-04-18T08:23:43.730Z,11.63
2023-04-18T08:27:48.042Z,12.35
2023-04-18T08:31:51.347Z,11.75
2023-04-18T08:35:54.479Z,11.15
2023-04-18T08:39:57.715Z,11.73
2023-04-18T08:44:02.489Z,11.80
2023-04-18T08:48:08.318Z,12.07
2023-04-18T08:52:14.512Z,11.70
2023-04-18T08:56:17.689Z,10.75
2023-04-18T09:00:23.939Z,11.23
2023-04-18T09:04:45.588Z,10.93
2023-04-18T09:09:00.504Z,10.38
2023-04-18T09:17:08.926Z,10.82
2023-04-18T09:21:20.107Z,12.57
2023-04-18T09:25:27.729Z,12.15
2023-04-18T09:29:46.999Z,12.10
2023-04-18T09:33:57.093Z,11.60
2023-04-18T09:38:00.373Z,11.98
2023-04-18T09:42:03.911Z,13.20
2023-04-18T09:46:09.951Z,11.52
2023-04-18T09:50:18.742Z,11.90
2023-04-18T09:54:24.238Z,11.73
2023-04-18T09:58:34.335Z,11.95
2023-04-18T10:02:51.684Z,10.85
2023-04-18T10:06:58.905Z,10.65
2023-04-18T10:11:04.884Z,11.25
2023-04-18T10:15:10.620Z,10.90
2023-04-18T10:19:27.420Z,11.23
2023-04-18T10:23:39.313Z,11.13
2023-04-18T10:27:57.630Z,10.30
2023-04-18T10:32:07.384Z,9.98
2023-04-18T10:36:22.543Z,9.68
2023-04-18T10:40:35.667Z,10.52
2023-04-18T10:44:38.981Z,11.32
2023-04-18T10:48:41.967Z,8.95
2023-04-18T10:52:45.019Z,9.05
2023-04-18T10:56:57.092Z,8.73
2023-04-18T11:01:01.099Z,10.40
2023-04-18T11:05:08.137Z,8.43
2023-04-18T11:09:11.847Z,8.73
2023-04-18T11:13:16.422Z,8.50
2023-04-18T11:17:24.050Z,7.00
2023-04-18T11:21:30.723Z,7.80
2023-04-18T11:25:36.680Z,7.68
2023-04-18T11:29:41.333Z,7.05
2023-04-18T11:33:46.590Z,6.90
2023-04-18T11:37:51.632Z,10.90
2023-04-18T11:41:57.328Z,9.43
2023-04-18T11:46:02.145Z,9.13
2023-04-18T11:50:07.393Z,8.40
2023-04-18T11:54:37.289Z,8.98
2023-04-18T11:58:41.099Z,10.07
2023-04-18T12:02:48.277Z,10.63
2023-04-18T12:06:52.847Z,10.68
2023-04-18T12:10:56.763Z,10.98
2023-04-18T12:15:01.798Z,9.48
2023-04-18T12:19:11.648Z,10.45
2023-04-18T12:23:35.785Z,10.55
2023-04-18T12:28:05.212Z,9.77
2023-04-18T12:32:08.006Z,10.80
2023-04-18T12:36:12.602Z,9.85
2023-04-18T12:40:16.276Z,11.07
2023-04-18T12:44:19.240Z,10.65
2023-04-18T12:52:27.092Z,9.70
2023-04-18T12:56:29.945Z,11.32
2023-04-18T13:00:33.757Z,10.00
2023-04-18T13:04:36.964Z,10.82
2023-04-18T13:08:42.816Z,9.20
2023-04-18T13:12:47.959Z,10.68
2023-04-18T13:16:51.501Z,10.45
2023-04-18T13:20:54.638Z,10.18
2023-04-18T13:24:59.162Z,9.48
2023-04-18T13:29:02.094Z,9.57
2023-04-18T13:33:06.829Z,8.95
2023-04-18T13:37:10.012Z,9.85
2023-04-18T13:41:14.248Z,8.77
2023-04-18T13:45:20.874Z,8.65
2023-04-18T13:49:23.874Z,8.63
2023-04-18T13:53:27.928Z,8.45
2023-04-18T13:57:37.549Z,8.73
2023-04-18T14:05:43.581Z,8.73
2023-04-18T14:09:53.747Z,7.78
2023-04-18T14:13:58.345Z,9.70
2023-04-18T14:18:07.130Z,9.40
2023-04-18T14:22:10.202Z,8.32
2023-04-18T14:26:13.321Z,7.85
2023-04-18T14:30:18.387Z,7.93
2023-04-18T14:34:21.391Z,7.75
2023-04-18T14:42:30.448Z,7.22
2023-04-18T14:46:35.027Z,7.13
2023-04-18T14:50:41.053Z,7.38
2023-04-18T14:54:45.116Z,6.22
2023-04-18T14:58:48.279Z,7.13
2023-04-18T15:02:52.755Z,6.47
2023-04-18T15:06:56.452Z,6.03
2023-04-18T15:10:59.388Z,6.40
2023-04-18T15:15:02.215Z,5.95
2023-04-18T15:19:10.102Z,5.97
2023-04-18T15:23:15.640Z,7.25
2023-04-18T15:27:18.724Z,7.28
2023-04-18T15:31:23.794Z,6.45
2023-04-18T15:35:28.186Z,6.38
2023-04-18T15:39:30.998Z,5.50
2023-04-18T15:43:33.986Z,5.43
2023-04-18T15:47:37.399Z,5.93
2023-04-18T15:51:41.774Z,5.25
2023-04-18T15:55:46.845Z,5.50
2023-04-18T15:59:51.033Z,5.45
2023-04-18T16:07:59.653Z,4.85
2023-04-18T16:12:04.646Z,4.63
2023-04-18T16:16:08.024Z,5.18
2023-04-18T16:20:11.455Z,4.80
2023-04-18T16:24:16.673Z,4.82
2023-04-18T16:28:19.612Z,5.00
2023-04-18T16:32:23.109Z,5.10
2023-04-18T16:36:26.207Z,5.00
2023-04-18T16:40:31.672Z,4.68
2023-04-18T16:44:34.795Z,4.63
2023-04-18T16:48:40.979Z,4.40
2023-04-18T16:52:43.850Z,5.60
2023-04-18T16:56:48.514Z,4.88
2023-04-18T17:00:52.749Z,4.50
2023-04-18T17:04:56.657Z,5.78
2023-04-18T17:09:00.197Z,5.82
2023-04-18T17:13:05.285Z,5.43
2023-04-18T17:17:08.530Z,6.18
2023-04-18T17:21:12.720Z,5.07
2023-04-18T17:25:17.735Z,5.82
2023-04-18T17:29:24.259Z,6.43
2023-04-18T17:33:30.035Z,5.93
2023-04-18T17:37:33.573Z,5.57
2023-04-18T17:41:39.110Z,5.80
2023-04-18T17:45:44.336Z,5.68
2023-04-18T17:49:47.080Z,5.70
2023-04-18T17:53:50.303Z,6.25
2023-04-18T17:57:53.664Z,5.78
2023-04-18T18:01:58.883Z,5.57
2023-04-18T18:06:04.445Z,6.65
2023-04-18T18:10:08.887Z,6.13
2023-04-18T18:14:11.684Z,7.15
2023-04-18T18:18:16.304Z,6.50
2023-04-18T18:22:21.419Z,6.97
2023-04-18T18:26:26.652Z,8.35
2023-04-18T18:30:30.250Z,8.73
2023-04-18T18:34:34.365Z,8.73
2023-04-18T18:38:38.070Z,8.65
2023-04-18T18:42:45.528Z,9.50
2023-04-18T18:46:48.883Z,10.48
2023-04-18T18:50:53.491Z,9.98
2023-04-18T18:54:57.209Z,11.38
2023-04-18T18:59:02.044Z,10.88
2023-04-18T19:03:05.837Z,10.82
2023-04-18T19:07:10.140Z,10.77
2023-04-18T19:11:13.065Z,10.77
2023-04-18T19:15:16.528Z,10.23
2023-04-18T19:19:19.489Z,9.73
2023-04-18T19:23:25.534Z,10.18
2023-04-18T19:27:31.396Z,10.07
2023-04-18T19:31:34.381Z,9.75
2023-04-18T19:35:42.471Z,9.48
2023-04-18T19:39:49.325Z,9.40
2023-04-18T19:43:52.344Z,9.75
2023-04-18T19:47:55.700Z,8.27
2023-04-18T19:52:01.479Z,10.07
2023-04-18T19:56:06.220Z,8.52
2023-04-18T20:00:10.829Z,8.93
2023-04-18T20:04:13.770Z,9.40
2023-04-18T20:08:16.992Z,8.98
2023-04-18T20:12:21.804Z,9.60
2023-04-18T20:16:24.904Z,8.48
2023-04-18T20:20:29.042Z,8.18
2023-04-18T20:24:32.663Z,8.00
2023-04-18T20:28:38.211Z,7.80
2023-04-18T20:32:41.680Z,8.85
2023-04-18T20:36:46.857Z,8.82
2023-04-18T20:40:53.015Z,9.27
2023-04-18T20:44:59.174Z,10.68
2023-04-18T20:49:02.295Z,10.15
2023-04-18T20:53:07.520Z,11.93
2023-04-18T20:57:13.991Z,8.80
2023-04-18T21:01:18.788Z,9.57
2023-04-18T21:05:22.300Z,7.28
2023-04-18T21:09:25.336Z,7.57
2023-04-18T21:17:32.460Z,8.30
2023-04-18T21:21:35.728Z,7.82
2023-04-18T21:25:40.770Z,7.82
2023-04-18T21:29:43.783Z,8.00
2023-04-18T21:33:48.126Z,7.80
2023-04-18T21:37:50.960Z,8.23
2023-04-18T21:41:54.599Z,8.68
2023-04-18T21:45:58.282Z,8.52
2023-04-18T21:50:03.132Z,7.13
2023-04-18T21:54:09.414Z,9.10
2023-04-18T21:58:13.572Z,8.52
2023-04-18T22:02:16.758Z,8.60
2023-04-18T22:06:23.348Z,8.20
2023-04-18T22:10:26.552Z,8.27
2023-04-18T22:14:33.834Z,8.63
2023-04-18T22:18:37.850Z,8.70
2023-04-18T22:22:42.781Z,8.07
2023-04-18T22:26:47.706Z,7.30
2023-04-18T22:30:50.834Z,8.02
2023-04-18T22:34:53.891Z,8.63
2023-04-18T22:39:00.974Z,8.15
2023-04-18T22:43:05.578Z,7.97
2023-04-18T22:47:08.676Z,8.57
2023-04-18T22:55:17.616Z,6.97
2023-04-18T22:59:20.579Z,6.70
2023-04-18T23:07:26.811Z,6.63
2023-04-18T23:11:33.725Z,6.95
2023-04-18T23:15:39.095Z,6.75
2023-04-18T23:19:42.755Z,7.72
2023-04-18T23:23:47.434Z,6.80
2023-04-18T23:27:51.894Z,7.88
2023-04-18T23:31:54.772Z,7.35
2023-04-18T23:35:57.806Z,6.57
2023-04-18T23:40:01.359Z,7.43
2023-04-18T23:44:06.285Z,5.78
2023-04-18T23:48:09.152Z,6.18
2023-04-18T23:52:11.768Z,7.53
2023-04-18T23:56:14.788Z,8.00
